createdAt,value
2023-05-15T00:02:23.357Z,3.60
2023-05-15T00:04:50.677Z,3.90
2023-05-15T00:07:17.967Z,3.60
2023-05-15T00:09:45.217Z,4.00
2023-05-15T00:12:12.150Z,3.50
2023-05-15T00:14:39.372Z,3.80
2023-05-15T00:17:06.469Z,3.40
2023-05-15T00:19:33.467Z,3.60
2023-05-15T00:22:00.510Z,3.60
2023-05-15T00:24:27.527Z,3.50
2023-05-15T00:26:54.692Z,3.60
2023-05-15T00:29:22.026Z,3.40
2023-05-15T00:31:49.105Z,3.70
2023-05-15T00:34:16.118Z,4.00
2023-05-15T00:36:43.136Z,4.00
2023-05-15T00:39:11.901Z,3.80
2023-05-15T00:41:38.873Z,3.70
2023-05-15T00:44:06.164Z,3.60
2023-05-15T00:46:33.893Z,3.70
2023-05-15T00:49:03.714Z,3.60
2023-05-15T00:51:31.164Z,3.70
2023-05-15T00:53:59.191Z,3.70
2023-05-15T00:56:26.559Z,4.00
2023-05-15T00:58:54.167Z,3.80
2023-05-15T01:01:21.933Z,3.60
2023-05-15T01:03:49.008Z,3.80
2023-05-15T01:06:16.205Z,3.60
2023-05-15T01:08:46.975Z,3.60
2023-05-15T01:11:14.855Z,3.20
2023-05-15T01:13:42.357Z,3.30
2023-05-15T01:16:09.683Z,3.50
2023-05-15T01:18:36.904Z,3.60
2023-05-15T01:21:10.267Z,3.60
2023-05-15T01:23:49.490Z,3.70
2023-05-15T01:26:29.797Z,3.60
2023-05-15T01:29:02.935Z,3.30
2023-05-15T01:31:32.029Z,4.20
2023-05-15T01:34:00.688Z,3.50
2023-05-15T01:36:51.863Z,3.50
2023-05-15T01:39:20.372Z,3.30
2023-05-15T01:41:56.650Z,3.20
2023-05-15T01:44:31.592Z,3.50
2023-05-15T01:47:10.547Z,3.70
2023-05-15T01:49:37.715Z,3.40
2023-05-15T01:52:20.734Z,3.90
2023-05-15T01:54:47.802Z,3.40
2023-05-15T01:57:14.787Z,3.70
2023-05-15T01:59:42.634Z,3.40
2023-05-15T02:02:09.820Z,3.80
2023-05-15T02:04:37.473Z,2.90
2023-05-15T02:07:05.059Z,3.20
2023-05-15T02:09:33.955Z,3.50
2023-05-15T02:12:02.333Z,3.10
2023-05-15T02:14:30.667Z,3.40
2023-05-15T02:16:57.782Z,3.70
2023-05-15T02:19:24.866Z,3.20
2023-05-15T02:21:51.862Z,3.30
2023-05-15T02:24:18.966Z,3.60
2023-05-15T02:27:04.716Z,3.70
2023-05-15T02:29:35.268Z,3.50
2023-05-15T02:32:14.609Z,3.60
2023-05-15T02:35:03.478Z,3.10
2023-05-15T02:37:32.294Z,3.30
2023-05-15T02:39:59.910Z,3.40
2023-05-15T02:42:27.349Z,3.60
2023-05-15T02:44:54.717Z,3.20
2023-05-15T02:47:22.622Z,3.40
2023-05-15T02:49:49.610Z,3.40
2023-05-15T02:52:16.651Z,3.60
2023-05-15T02:54:43.547Z,3.50
2023-05-15T02:57:10.616Z,3.50
2023-05-15T02:59:37.738Z,3.20
2023-05-15T03:02:05.589Z,3.40
2023-05-15T03:04:33.082Z,3.30
2023-05-15T03:07:00.306Z,3.00
2023-05-15T03:09:27.750Z,3.30
2023-05-15T03:11:54.936Z,3.70
2023-05-15T03:14:22.009Z,3.20
2023-05-15T03:16:49.118Z,2.90
2023-05-15T03:19:16.450Z,3.00
2023-05-15T03:21:43.709Z,3.60
2023-05-15T03:24:10.895Z,3.40
2023-05-15T03:26:38.074Z,3.20
2023-05-15T03:29:05.129Z,3.30
2023-05-15T03:31:32.448Z,3.70
2023-05-15T03:33:59.503Z,3.80
2023-05-15T03:36:26.432Z,3.50
2023-05-15T03:38:53.556Z,3.70
2023-05-15T03:41:21.466Z,3.30
2023-05-15T03:43:48.445Z,3.80
2023-05-15T03:46:17.604Z,3.50
2023-05-15T03:48:44.610Z,3.90
2023-05-15T03:51:11.557Z,4.30
2023-05-15T03:53:40.456Z,4.30
2023-05-15T03:56:07.428Z,3.70
2023-05-15T03:58:34.863Z,4.10
2023-05-15T04:01:01.996Z,5.10
2023-05-15T04:03:29.214Z,4.40
2023-05-15T04:05:56.391Z,4.30
2023-05-15T04:08:23.447Z,3.90
2023-05-15T04:10:50.886Z,3.20
2023-05-15T04:13:18.078Z,3.50
2023-05-15T04:15:45.781Z,3.90
2023-05-15T04:18:13.872Z,3.40
2023-05-15T04:20:40.960Z,4.00
2023-05-15T04:23:08.035Z,4.40
2023-05-15T04:25:35.078Z,4.60
2023-05-15T04:28:02.183Z,4.50
2023-05-15T04:30:29.475Z,10.70
2023-05-15T04:32:56.758Z,5.60
2023-05-15T04:35:23.994Z,4.20
2023-05-15T04:37:51.307Z,4.90
2023-05-15T04:40:18.517Z,3.80
2023-05-15T04:42:45.689Z,3.50
2023-05-15T04:45:12.795Z,3.90
2023-05-15T04:47:39.981Z,3.70
2023-05-15T04:50:07.591Z,3.60
2023-05-15T04:52:34.999Z,3.60
2023-05-15T04:55:02.258Z,3.50
2023-05-15T04:57:30.402Z,3.70
2023-05-15T04:59:58.686Z,3.30
2023-05-15T05:02:25.758Z,3.30
2023-05-15T05:04:53.174Z,4.20
2023-05-15T05:07:20.096Z,3.60
2023-05-15T05:09:47.046Z,3.30
2023-05-15T05:12:14.658Z,3.30
2023-05-15T05:14:42.521Z,4.30
2023-05-15T05:17:09.771Z,3.90
2023-05-15T05:19:37.661Z,3.80
2023-05-15T05:22:05.587Z,3.50
2023-05-15T05:24:33.299Z,3.70
2023-05-15T05:27:00.394Z,3.30
2023-05-15T05:29:28.061Z,4.10
2023-05-15T05:31:55.192Z,3.70
2023-05-15T05:34:22.361Z,4.00
2023-05-15T05:36:49.786Z,4.20
2023-05-15T05:39:17.028Z,3.60
2023-05-15T05:41:45.581Z,4.00
2023-05-15T05:44:12.672Z,3.90
2023-05-15T05:46:42.130Z,6.30
2023-05-15T05:49:09.191Z,4.40
2023-05-15T05:51:39.239Z,4.40
2023-05-15T05:54:06.269Z,4.40
2023-05-15T05:56:33.258Z,4.60
2023-05-15T05:59:02.057Z,4.90
2023-05-15T06:01:29.660Z,4.30
2023-05-15T06:03:58.656Z,4.10
2023-05-15T06:06:25.778Z,3.70
2023-05-15T06:08:55.556Z,4.00
2023-05-15T06:13:52.810Z,8.20
2023-05-15T06:16:19.863Z,6.80
2023-05-15T06:18:46.934Z,14.90
2023-05-15T06:21:15.195Z,7.20
2023-05-15T06:23:42.177Z,7.10
2023-05-15T06:26:09.125Z,6.50
2023-05-15T06:28:36.386Z,8.40
2023-05-15T06:31:03.575Z,9.60
2023-05-15T06:33:31.271Z,6.70
2023-05-15T06:35:58.329Z,5.30
2023-05-15T06:38:25.265Z,6.20
2023-05-15T06:43:48.044Z,5.20
2023-05-15T06:46:17.310Z,7.00
2023-05-15T06:48:44.573Z,4.10
2023-05-15T06:51:11.512Z,4.90
2023-05-15T06:53:38.795Z,4.50
2023-05-15T06:56:06.386Z,4.60
2023-05-15T06:58:34.586Z,3.90
2023-05-15T07:01:03.933Z,6.10
2023-05-15T07:03:31.465Z,5.60
2023-05-15T07:05:58.391Z,5.80
2023-05-15T07:08:26.021Z,5.80
2023-05-15T07:10:53.087Z,6.60
2023-05-15T07:13:21.772Z,6.80
2023-05-15T07:15:49.069Z,6.10
2023-05-15T07:18:18.344Z,7.40
2023-05-15T07:20:45.328Z,4.90
2023-05-15T07:23:12.383Z,5.40
2023-05-15T07:25:39.282Z,4.70
2023-05-15T07:32:47.153Z,6.50
2023-05-15T07:35:14.228Z,4.00
2023-05-15T07:37:41.550Z,5.60
2023-05-15T07:43:25.372Z,4.40
2023-05-15T07:45:52.538Z,3.80
2023-05-15T07:48:20.192Z,4.40
2023-05-15T07:50:47.444Z,12.90
2023-05-15T07:53:17.175Z,6.90
2023-05-15T07:55:44.384Z,6.40
2023-05-15T07:58:11.897Z,3.90
2023-05-15T08:00:38.977Z,6.10
2023-05-15T08:03:05.915Z,2.90
2023-05-15T08:05:33.047Z,5.20
2023-05-15T08:08:00.540Z,2.90
2023-05-15T08:10:28.740Z,6.00
2023-05-15T08:12:56.221Z,5.20
2023-05-15T08:15:24.153Z,4.00
2023-05-15T08:17:51.397Z,3.20
2023-05-15T08:20:18.541Z,4.10
2023-05-15T08:22:45.900Z,2.70
2023-05-15T08:25:12.916Z,3.70
2023-05-15T08:27:39.904Z,3.70
2023-05-15T08:30:07.548Z,2.80
2023-05-15T08:32:34.829Z,3.00
2023-05-15T08:35:02.184Z,3.60
2023-05-15T08:37:29.758Z,8.60
2023-05-15T08:42:50.607Z,3.50
2023-05-15T08:45:17.610Z,6.30
2023-05-15T08:47:44.756Z,4.30
2023-05-15T08:50:14.177Z,3.60
2023-05-15T08:52:45.727Z,4.00
2023-05-15T08:55:14.622Z,6.30
2023-05-15T08:57:41.791Z,3.70
2023-05-15T09:00:09.386Z,4.00
2023-05-15T09:02:41.492Z,6.90
2023-05-15T09:05:09.718Z,3.80
2023-05-15T09:07:38.620Z,3.50
2023-05-15T09:10:06.296Z,3.10
2023-05-15T09:12:34.672Z,2.20
2023-05-15T09:15:12.987Z,2.20
2023-05-15T09:17:40.374Z,2.40
2023-05-15T09:20:08.579Z,2.20
2023-05-15T09:22:36.173Z,5.60
2023-05-15T09:25:04.644Z,3.10
2023-05-15T09:27:41.216Z,3.30
2023-05-15T09:30:09.240Z,7.70
2023-05-15T09:32:37.535Z,4.00
2023-05-15T09:35:04.917Z,2.80
2023-05-15T09:37:33.724Z,3.20
2023-05-15T09:40:09.248Z,2.50
2023-05-15T09:42:36.981Z,4.60
2023-05-15T09:45:05.199Z,3.40
2023-05-15T09:47:32.648Z,3.70
2023-05-15T09:49:59.729Z,5.60
2023-05-15T09:52:27.838Z,7.40
2023-05-15T09:54:56.463Z,5.70
2023-05-15T09:57:23.564Z,4.30
2023-05-15T09:59:50.669Z,4.00
2023-05-15T10:02:36.404Z,4.30
2023-05-15T10:05:03.516Z,3.50
2023-05-15T10:07:31.998Z,4.10
2023-05-15T10:09:59.681Z,4.40
2023-05-15T10:12:28.532Z,4.40
2023-05-15T10:14:59.605Z,3.00
2023-05-15T10:17:29.561Z,3.60
2023-05-15T10:20:00.835Z,3.40
2023-05-15T10:22:31.152Z,2.70
2023-05-15T10:25:12.017Z,2.40
2023-05-15T10:27:39.160Z,3.60
2023-05-15T10:30:08.038Z,3.50
2023-05-15T10:32:35.162Z,2.90
2023-05-15T10:35:03.477Z,2.80
2023-05-15T10:37:30.973Z,2.60
2023-05-15T10:39:57.995Z,5.20
2023-05-15T10:42:26.195Z,3.60
2023-05-15T10:44:54.121Z,2.80
2023-05-15T10:47:21.318Z,2.40
2023-05-15T10:49:48.301Z,3.20
2023-05-15T10:52:15.866Z,4.60
2023-05-15T10:54:42.849Z,3.80
2023-05-15T10:57:10.562Z,3.30
2023-05-15T10:59:37.457Z,5.90
2023-05-15T11:02:24.382Z,2.90
2023-05-15T11:04:58.630Z,2.50
2023-05-15T11:07:25.902Z,3.70
2023-05-15T11:09:53.781Z,5.00
2023-05-15T11:12:21.028Z,4.40
2023-05-15T11:14:57.422Z,3.10
2023-05-15T11:17:24.525Z,2.50
2023-05-15T11:19:51.752Z,3.50
2023-05-15T11:22:22.299Z,3.10
2023-05-15T11:27:33.475Z,3.00
2023-05-15T11:30:22.550Z,3.40
2023-05-15T11:32:55.228Z,2.50
2023-05-15T11:35:29.371Z,3.20
2023-05-15T11:37:57.593Z,4.60
2023-05-15T11:40:31.698Z,2.90
2023-05-15T11:43:08.836Z,3.30
2023-05-15T11:45:37.832Z,3.00
2023-05-15T11:48:06.781Z,4.00
2023-05-15T11:50:34.985Z,9.50
2023-05-15T11:53:06.389Z,3.60
2023-05-15T11:55:36.011Z,2.90
2023-05-15T11:58:04.365Z,2.90
2023-05-15T12:00:31.796Z,3.10
2023-05-15T12:02:58.754Z,2.30
2023-05-15T12:05:25.875Z,2.90
2023-05-15T12:07:53.047Z,2.80
2023-05-15T12:10:20.066Z,3.80
2023-05-15T12:12:47.014Z,2.70
2023-05-15T12:15:14.870Z,5.40
2023-05-15T12:17:42.323Z,3.30
2023-05-15T12:20:17.688Z,3.00
2023-05-15T12:22:45.050Z,2.90
2023-05-15T12:25:12.943Z,2.80
2023-05-15T12:27:41.088Z,2.50
2023-05-15T12:30:08.458Z,2.90
2023-05-15T12:32:36.458Z,2.70
2023-05-15T12:35:05.021Z,5.30
2023-05-15T12:37:33.788Z,3.50
2023-05-15T12:40:02.265Z,3.20
2023-05-15T12:42:29.579Z,3.20
2023-05-15T12:44:57.069Z,4.20
2023-05-15T12:47:27.298Z,3.30
2023-05-15T12:49:57.684Z,2.90
2023-05-15T12:52:28.461Z,3.40
2023-05-15T12:54:55.500Z,3.90
2023-05-15T12:57:22.575Z,3.50
2023-05-15T12:59:51.047Z,4.00
2023-05-15T13:02:18.407Z,3.90
2023-05-15T13:04:46.868Z,2.90
2023-05-15T13:07:17.514Z,3.20
2023-05-15T13:09:46.384Z,2.60
2023-05-15T13:12:13.338Z,3.10
2023-05-15T13:14:42.059Z,2.80
2023-05-15T13:17:09.468Z,3.40
2023-05-15T13:19:36.538Z,3.10
2023-05-15T13:22:03.491Z,3.20
2023-05-15T13:24:31.406Z,4.60
2023-05-15T13:26:58.407Z,3.30
2023-05-15T13:29:25.406Z,4.20
2023-05-15T13:31:52.457Z,2.90
2023-05-15T13:34:19.675Z,3.30
2023-05-15T13:36:46.624Z,2.60
2023-05-15T13:39:13.558Z,2.50
2023-05-15T13:41:40.568Z,2.60
2023-05-15T13:44:07.549Z,2.50
2023-05-15T13:46:34.809Z,2.90
2023-05-15T13:49:01.805Z,3.30
2023-05-15T13:51:29.015Z,3.10
2023-05-15T13:53:56.120Z,2.80
2023-05-15T13:56:23.005Z,2.60
2023-05-15T13:58:50.200Z,3.60
2023-05-15T14:01:17.674Z,3.60
2023-05-15T14:03:45.592Z,3.20
2023-05-15T14:06:12.570Z,4.00
2023-05-15T14:08:39.576Z,2.90
2023-05-15T14:11:06.663Z,2.70
2023-05-15T14:13:34.223Z,3.60
2023-05-15T14:16:01.363Z,3.60
2023-05-15T14:18:29.942Z,3.50
2023-05-15T14:20:58.826Z,5.20
2023-05-15T14:23:26.758Z,3.10
2023-05-15T14:25:53.748Z,3.70
2023-05-15T14:28:20.749Z,2.90
2023-05-15T14:30:47.906Z,3.20
2023-05-15T14:33:14.900Z,3.50
2023-05-15T14:35:41.941Z,3.10
2023-05-15T14:38:08.930Z,3.10
2023-05-15T14:40:35.924Z,2.70
2023-05-15T14:43:03.230Z,2.60
2023-05-15T14:45:30.313Z,4.50
2023-05-15T14:47:57.664Z,4.00
2023-05-15T14:50:25.002Z,2.70
2023-05-15T14:52:52.773Z,3.20
2023-05-15T14:55:23.070Z,2.80
2023-05-15T14:57:50.124Z,3.20
2023-05-15T15:00:17.830Z,3.60
2023-05-15T15:02:46.279Z,3.90
2023-05-15T15:05:13.422Z,4.60
2023-05-15T15:08:06.707Z,3.60
2023-05-15T15:10:35.618Z,2.70
2023-05-15T15:13:04.514Z,3.40
2023-05-15T15:15:32.710Z,3.80
2023-05-15T15:17:59.942Z,3.30
2023-05-15T15:20:27.364Z,4.00
2023-05-15T15:22:54.785Z,4.90
2023-05-15T15:25:21.808Z,4.10
2023-05-15T15:27:48.956Z,3.60
2023-05-15T15:30:16.281Z,4.20
2023-05-15T15:32:47.110Z,4.40
2023-05-15T15:37:41.899Z,3.90
2023-05-15T15:40:09.165Z,3.80
2023-05-15T15:42:36.636Z,4.90
2023-05-15T15:45:03.811Z,5.20
2023-05-15T15:47:32.251Z,4.60
2023-05-15T15:49:59.745Z,5.10
2023-05-15T15:52:26.780Z,4.50
2023-05-15T15:54:54.021Z,4.80
2023-05-15T15:57:21.248Z,4.60
2023-05-15T15:59:49.365Z,4.30
2023-05-15T16:02:17.184Z,4.10
2023-05-15T16:04:44.307Z,4.50
2023-05-15T16:07:11.247Z,4.40
2023-05-15T16:09:39.146Z,4.20
2023-05-15T16:12:06.823Z,4.60
2023-05-15T16:14:34.702Z,4.60
2023-05-15T16:17:03.281Z,5.70
2023-05-15T16:19:32.331Z,6.20
2023-05-15T16:21:59.232Z,3.50
2023-05-15T16:24:26.477Z,2.90
2023-05-15T16:26:53.638Z,3.80
2023-05-15T16:29:20.699Z,3.50
2023-05-15T16:31:47.909Z,3.10
2023-05-15T16:34:14.901Z,3.20
2023-05-15T16:36:42.214Z,4.60
2023-05-15T16:39:09.208Z,3.60
2023-05-15T16:41:36.559Z,4.10
2023-05-15T16:44:11.108Z,3.90
2023-05-15T16:46:38.646Z,3.10
2023-05-15T16:49:05.676Z,3.30
2023-05-15T16:51:33.759Z,3.20
2023-05-15T16:54:00.868Z,3.20
2023-05-15T16:56:27.868Z,3.10
2023-05-15T16:58:54.990Z,4.00
2023-05-15T17:01:22.093Z,3.30
2023-05-15T17:03:49.369Z,5.20
2023-05-15T17:06:16.753Z,18.20
2023-05-15T17:08:45.309Z,14.50
2023-05-15T17:11:13.520Z,14.60
2023-05-15T17:13:40.652Z,14.80
2023-05-15T17:16:08.779Z,11.00
2023-05-15T17:18:36.018Z,12.10
2023-05-15T17:21:03.206Z,12.50
2023-05-15T17:23:30.231Z,13.70
2023-05-15T17:25:57.218Z,12.80
2023-05-15T17:28:24.541Z,13.10
2023-05-15T17:30:51.774Z,13.30
2023-05-15T17:33:19.050Z,20.10
2023-05-15T17:35:46.282Z,18.80
2023-05-15T17:38:13.634Z,21.20
2023-05-15T17:40:40.800Z,23.50
2023-05-15T17:43:10.260Z,22.80
2023-05-15T17:45:37.433Z,22.50
2023-05-15T17:48:05.066Z,21.30
2023-05-15T17:50:32.534Z,20.30
2023-05-15T17:52:59.511Z,18.00
2023-05-15T17:55:26.640Z,17.00
2023-05-15T17:57:53.846Z,18.30
2023-05-15T18:00:21.160Z,21.80
2023-05-15T18:02:48.956Z,22.20
2023-05-15T18:05:15.993Z,24.90
2023-05-15T18:07:42.944Z,19.60
2023-05-15T18:10:10.214Z,15.50
2023-05-15T18:12:37.555Z,14.20
2023-05-15T18:15:04.937Z,9.90
2023-05-15T18:17:32.910Z,10.70
2023-05-15T18:19:59.983Z,11.30
2023-05-15T18:22:27.258Z,11.60
2023-05-15T18:24:54.329Z,12.80
2023-05-15T18:27:21.308Z,12.50
2023-05-15T18:29:48.206Z,13.30
2023-05-15T18:32:15.431Z,12.60
2023-05-15T18:34:42.462Z,13.20
2023-05-15T18:37:09.393Z,14.40
2023-05-15T18:39:37.558Z,14.40
2023-05-15T18:42:05.998Z,16.60
2023-05-15T18:44:34.865Z,13.00
2023-05-15T18:47:02.455Z,13.80
2023-05-15T18:49:29.919Z,15.70
2023-05-15T18:51:58.041Z,17.40
2023-05-15T18:54:25.141Z,19.10
2023-05-15T18:56:53.205Z,18.40
2023-05-15T18:59:20.275Z,16.80
2023-05-15T19:01:49.125Z,17.30
2023-05-15T19:04:16.168Z,17.20
2023-05-15T19:06:43.787Z,16.20
2023-05-15T19:09:10.794Z,13.20
2023-05-15T19:11:37.725Z,12.00
2023-05-15T19:14:04.895Z,13.00
2023-05-15T19:16:33.045Z,12.30
2023-05-15T19:19:00.190Z,11.60
2023-05-15T19:21:27.846Z,9.40
2023-05-15T19:23:54.953Z,9.10
2023-05-15T19:26:22.066Z,9.30
2023-05-15T19:28:49.099Z,10.60
2023-05-15T19:31:27.854Z,11.70
2023-05-15T19:33:58.479Z,11.40
2023-05-15T19:36:25.485Z,8.60
2023-05-15T19:38:52.749Z,8.20
2023-05-15T19:41:19.897Z,9.40
2023-05-15T19:43:47.159Z,9.40
2023-05-15T19:46:14.107Z,9.20
2023-05-15T19:48:41.180Z,8.50
2023-05-15T19:51:08.071Z,8.50
2023-05-15T19:53:36.740Z,8.60
2023-05-15T19:56:03.964Z,9.30
2023-05-15T19:58:31.639Z,10.00
2023-05-15T20:00:58.714Z,8.60
2023-05-15T20:03:32.804Z,8.10
2023-05-15T20:06:01.411Z,11.90
2023-05-15T20:08:28.980Z,12.50
2023-05-15T20:10:56.077Z,13.50
2023-05-15T20:13:23.225Z,14.20
2023-05-15T20:15:57.181Z,14.50
2023-05-15T20:18:28.059Z,14.90
2023-05-15T20:23:22.460Z,22.90
2023-05-15T20:25:50.293Z,18.70
2023-05-15T20:28:17.909Z,19.10
2023-05-15T20:30:47.568Z,18.00
2023-05-15T20:33:14.704Z,15.30
2023-05-15T20:35:43.562Z,13.90
2023-05-15T20:38:11.981Z,14.50
2023-05-15T20:40:39.127Z,14.50
2023-05-15T20:43:06.391Z,14.70
2023-05-15T20:45:34.121Z,14.50
2023-05-15T20:48:01.367Z,14.40
2023-05-15T20:50:28.535Z,13.20
2023-05-15T20:52:55.965Z,13.60
2023-05-15T20:55:22.931Z,12.20
2023-05-15T20:57:50.384Z,13.70
2023-05-15T21:00:17.569Z,12.00
2023-05-15T21:02:46.311Z,11.20
2023-05-15T21:05:13.306Z,11.30
2023-05-15T21:07:41.272Z,9.90
2023-05-15T21:10:08.864Z,7.50
2023-05-15T21:12:35.960Z,7.80
2023-05-15T21:15:04.390Z,9.20
2023-05-15T21:17:31.791Z,8.60
2023-05-15T21:19:58.911Z,9.20
2023-05-15T21:22:25.950Z,7.90
2023-05-15T21:24:53.261Z,9.00
2023-05-15T21:27:20.221Z,9.00
2023-05-15T21:29:47.500Z,7.30
2023-05-15T21:32:14.404Z,8.00
2023-05-15T21:34:41.537Z,8.70
2023-05-15T21:37:08.477Z,9.80
2023-05-15T21:39:35.392Z,10.60
2023-05-15T21:42:02.382Z,10.70
2023-05-15T21:44:29.605Z,10.70
2023-05-15T21:46:57.125Z,10.50
2023-05-15T21:49:24.553Z,10.50
2023-05-15T21:51:51.514Z,10.00
2023-05-15T21:54:18.454Z,9.60
2023-05-15T21:56:45.427Z,10.50
2023-05-15T21:59:14.468Z,10.30
2023-05-15T22:01:41.529Z,11.90
2023-05-15T22:04:08.771Z,14.00
2023-05-15T22:06:36.246Z,12.00
2023-05-15T22:09:03.613Z,11.30
2023-05-15T22:11:30.581Z,9.10
2023-05-15T22:13:57.515Z,9.30
2023-05-15T22:16:24.566Z,9.50
2023-05-15T22:18:54.944Z,8.80
2023-05-15T22:21:21.980Z,9.30
2023-05-15T22:23:48.889Z,9.40
2023-05-15T22:26:15.829Z,10.70
2023-05-15T22:28:43.674Z,11.70
2023-05-15T22:31:10.795Z,10.00
2023-05-15T22:33:37.773Z,13.40
2023-05-15T22:36:05.940Z,16.50
2023-05-15T22:38:32.882Z,13.00
2023-05-15T22:40:59.902Z,12.50
2023-05-15T22:43:26.866Z,12.10
2023-05-15T22:45:53.910Z,11.60
2023-05-15T22:48:21.027Z,8.90
2023-05-15T22:50:48.633Z,7.90
2023-05-15T22:53:15.732Z,4.90
2023-05-15T22:55:42.790Z,5.60
2023-05-15T22:58:10.012Z,5.50
2023-05-15T23:00:37.582Z,5.70
2023-05-15T23:03:04.912Z,7.30
2023-05-15T23:05:32.106Z,7.00
2023-05-15T23:07:59.089Z,7.40
2023-05-15T23:10:26.214Z,7.70
2023-05-15T23:12:54.005Z,6.00
2023-05-15T23:15:21.576Z,6.10
2023-05-15T23:17:48.612Z,6.80
2023-05-15T23:20:15.812Z,7.70
2023-05-15T23:22:43.004Z,7.50
2023-05-15T23:25:10.977Z,8.10
2023-05-15T23:27:38.030Z,8.70
2023-05-15T23:30:06.108Z,8.20
2023-05-15T23:32:33.641Z,5.80
2023-05-15T23:35:00.611Z,6.90
2023-05-15T23:37:27.609Z,7.40
2023-05-15T23:39:55.437Z,8.30
2023-05-15T23:42:23.158Z,8.30
2023-05-15T23:44:50.312Z,7.80
2023-05-15T23:47:17.247Z,7.80
2023-05-15T23:49:44.460Z,8.10
2023-05-15T23:52:11.513Z,5.40
2023-05-15T23:54:38.448Z,6.10
2023-05-15T23:57:06.172Z,5.90
2023-05-15T23:59:33.166Z,6.30
